Time;durP1;ratioP1;P1;durP2;ratioP2;P2;SDS_P1;SDS_P2;PMS_P1;PMS_P2;Temp;Humidity;BMP_temperature;BMP_pressure;BME280_temperature;BME280_humidity;BME280_pressure;Samples;Min_cycle;Max_cycle;Signal;HPM_P1;HPM_P2
2022/09/08 00:00:14;;;;;;;9.27;2.73;;;21.90;65.10;;;;;;6095793;23;20184;-96
2022/09/08 00:02:43;;;;;;;7.17;2.27;;;21.90;65.00;;;;;;6098131;23;20616;-94
2022/09/08 00:05:53;;;;;;;11.07;3.13;;;21.90;65.20;;;;;;6097170;23;20862;-95
2022/09/08 00:08:58;;;;;;;8.27;2.87;;;21.90;66.10;;;;;;6096044;23;20171;-94
2022/09/08 00:11:40;;;;;;;9.40;2.50;;;21.90;65.60;;;;;;6093963;23;20560;-95
2022/09/08 00:17:36;;;;;;;5.23;2.13;;;21.90;66.50;;;;;;6090360;23;20486;-95
2022/09/08 00:20:30;;;;;;;8.20;2.93;;;21.90;65.80;;;;;;6095903;23;20230;-96
2022/09/08 00:22:57;;;;;;;10.07;2.83;;;21.90;67.30;;;;;;6089070;23;20245;-95
2022/09/08 00:25:26;;;;;;;9.10;3.50;;;21.80;66.30;;;;;;6115010;23;20163;-96
2022/09/08 00:28:00;;;;;;;3.33;1.90;;;21.80;66.60;;;;;;6102526;23;20194;-96
2022/09/08 00:30:30;;;;;;;6.80;2.67;;;21.80;67.60;;;;;;6099494;23;20179;-95
2022/09/08 00:33:00;;;;;;;4.80;2.30;;;21.80;67.00;;;;;;6098154;23;20211;-95
2022/09/08 00:38:27;;;;;;;5.33;2.30;;;21.80;68.30;;;;;;6092413;23;20198;-95
2022/09/08 00:40:56;;;;;;;8.57;3.37;;;21.80;67.70;;;;;;6098473;23;20195;-94
2022/09/08 00:43:37;;;;;;;6.20;2.53;;;21.80;69.00;;;;;;6096804;23;20178;-93
2022/09/08 00:46:18;;;;;;;15.47;4.80;;;21.80;68.60;;;;;;6096713;23;20179;-94
2022/09/08 00:48:49;;;;;;;10.47;3.50;;;21.70;68.30;;;;;;6119303;23;20159;-95
2022/09/08 00:51:18;;;;;;;10.20;3.53;;;21.80;68.30;;;;;;6101154;23;20191;-95
2022/09/08 00:56:32;;;;;;;4.73;2.17;;;21.80;68.40;;;;;;6097095;23;20209;-93
2022/09/08 00:59:03;;;;;;;6.23;2.07;;;21.80;68.40;;;;;;6095911;23;20199;-94
2022/09/08 01:01:34;;;;;;;7.27;2.40;;;21.80;68.40;;;;;;6096114;23;20175;-94
2022/09/08 01:04:02;;;;;;;6.30;2.40;;;21.80;68.10;;;;;;6097461;23;20203;-94
2022/09/08 01:12:47;;;;;;;5.97;2.07;;;21.70;67.60;;;;;;6109945;23;20621;-95
2022/09/08 01:15:21;;;;;;;6.37;1.97;;;21.70;67.20;;;;;;6096554;23;20189;-93
2022/09/08 01:18:06;;;;;;;4.10;1.63;;;21.60;67.10;;;;;;6096865;23;20216;-95
2022/09/08 01:20:48;;;;;;;4.73;1.80;;;21.50;67.40;;;;;;6096732;23;20177;-95
2022/09/08 01:23:41;;;;;;;4.17;1.53;;;21.50;67.40;;;;;;6096080;23;20181;-94
2022/09/08 01:26:30;;;;;;;9.33;3.10;;;21.50;67.90;;;;;;6096593;23;20229;-94
2022/09/08 01:32:07;;;;;;;6.57;2.27;;;21.40;68.80;;;;;;6111364;23;20217;-94
2022/09/08 01:34:39;;;;;;;9.10;2.77;;;21.40;68.00;;;;;;6110173;23;20171;-95
2022/09/08 01:37:06;;;;;;;7.40;2.53;;;21.40;68.40;;;;;;6106110;23;20175;-94
2022/09/08 01:42:19;;;;;;;3.27;1.40;;;21.40;68.20;;;;;;6095058;23;20190;-95
2022/09/08 01:44:48;;;;;;;9.17;3.03;;;21.40;68.40;;;;;;6097943;23;20171;-95
2022/09/08 01:47:21;;;;;;;7.57;2.83;;;21.30;68.40;;;;;;6099289;23;20181;-95
2022/09/08 01:49:54;;;;;;;4.53;1.83;;;21.30;69.30;;;;;;6099427;23;20206;-94
2022/09/08 01:52:46;;;;;;;11.13;3.33;;;21.30;69.30;;;;;;6097622;23;20552;-95
2022/09/08 01:55:34;;;;;;;12.63;3.40;;;21.30;70.00;;;;;;6097072;23;20177;-94
2022/09/08 01:58:01;;;;;;;10.80;3.70;;;21.30;69.60;;;;;;6095996;23;20183;-94
2022/09/08 02:00:42;;;;;;;9.77;3.33;;;21.30;70.00;;;;;;6096215;23;20453;-95
2022/09/08 02:06:01;;;;;;;10.20;3.30;;;21.30;70.00;;;;;;6063767;23;20244;-95
2022/09/08 02:08:28;;;;;;;7.23;3.20;;;21.30;70.20;;;;;;6069150;23;20186;-93
2022/09/08 02:11:00;;;;;;;8.87;3.17;;;21.30;70.00;;;;;;6068539;23;20238;-95
2022/09/08 02:13:29;;;;;;;8.47;3.20;;;21.30;70.50;;;;;;6068228;23;20203;-95
2022/09/08 02:16:07;;;;;;;10.60;3.23;;;21.30;70.50;;;;;;6069295;23;20198;-93
2022/09/08 02:18:41;;;;;;;8.40;3.03;;;21.30;71.30;;;;;;6067968;23;20295;-93
2022/09/08 02:21:10;;;;;;;8.93;3.13;;;21.30;71.20;;;;;;6066393;23;20182;-94
2022/09/08 02:23:48;;;;;;;7.47;2.80;;;21.30;70.90;;;;;;6067843;23;20199;-93
2022/09/08 02:26:17;;;;;;;5.83;2.73;;;21.30;71.60;;;;;;6068545;23;20179;-95
2022/09/08 02:28:46;;;;;;;3.70;2.20;;;21.30;71.00;;;;;;6068867;23;20255;-94
2022/09/08 02:31:19;;;;;;;9.00;3.23;;;21.20;71.00;;;;;;6068701;23;20219;-94
2022/09/08 02:34:11;;;;;;;9.73;3.27;;;21.20;71.70;;;;;;6068758;23;20202;-95
2022/09/08 02:36:38;;;;;;;8.37;3.03;;;21.20;71.80;;;;;;6068598;23;20182;-94
2022/09/08 02:39:08;;;;;;;7.10;3.23;;;21.20;71.10;;;;;;6068161;23;20207;-95
2022/09/08 02:41:35;;;;;;;6.73;2.87;;;21.20;72.20;;;;;;6047926;23;20188;-93
2022/09/08 02:44:02;;;;;;;8.80;2.83;;;21.20;71.90;;;;;;6069849;23;20287;-94
2022/09/08 02:46:35;;;;;;;17.30;5.97;;;21.20;72.10;;;;;;6068506;23;20172;-95
2022/09/08 02:49:04;;;;;;;8.47;3.03;;;21.20;72.70;;;;;;6066883;23;20184;-95
2022/09/08 02:51:32;;;;;;;7.40;3.00;;;21.20;72.40;;;;;;6068981;23;20262;-93
2022/09/08 02:54:06;;;;;;;5.73;2.60;;;21.20;72.80;;;;;;6069159;23;20178;-93
2022/09/08 02:56:36;;;;;;;5.70;2.23;;;21.20;72.80;;;;;;6069553;23;20196;-93
2022/09/08 02:59:03;;;;;;;6.50;2.87;;;21.10;73.30;;;;;;6069321;23;20221;-93
2022/09/08 03:01:30;;;;;;;9.13;3.67;;;21.20;73.20;;;;;;6071909;23;20533;-96
2022/09/08 03:03:57;;;;;;;9.20;3.87;;;21.20;73.70;;;;;;6078525;23;20262;-94
2022/09/08 03:06:58;;;;;;;8.77;3.73;;;21.20;73.80;;;;;;6078476;23;20180;-95
2022/09/08 03:09:26;;;;;;;10.43;4.17;;;21.20;75.10;;;;;;6073093;23;20648;-94
2022/09/08 03:11:56;;;;;;;5.33;2.60;;;21.20;73.70;;;;;;6072029;23;20198;-94
2022/09/08 03:14:23;;;;;;;6.67;3.00;;;21.20;74.40;;;;;;6067818;23;20181;-91
2022/09/08 03:16:50;;;;;;;11.63;4.47;;;21.20;74.00;;;;;;6068596;23;20189;-95
2022/09/08 03:19:18;;;;;;;10.97;3.97;;;21.20;74.10;;;;;;6067206;23;20203;-93
2022/09/08 03:21:48;;;;;;;7.70;3.37;;;21.20;74.30;;;;;;6068686;23;20234;-93
2022/09/08 03:24:17;;;;;;;10.77;3.80;;;21.20;74.90;;;;;;6069882;23;20172;-95
2022/09/08 03:26:44;;;;;;;6.13;3.13;;;21.20;74.60;;;;;;6041404;23;20556;-95
2022/09/08 03:29:12;;;;;;;8.73;3.53;;;21.20;74.60;;;;;;6067504;23;20266;-91
2022/09/08 03:31:39;;;;;;;11.97;4.70;;;21.20;74.90;;;;;;6084491;23;20175;-96
2022/09/08 03:34:08;;;;;;;10.83;4.10;;;21.10;74.90;;;;;;6072910;23;20178;-93
2022/09/08 03:36:36;;;;;;;9.60;4.40;;;21.10;75.40;;;;;;6072011;23;20179;-94
2022/09/08 03:39:10;;;;;;;8.33;3.17;;;21.10;75.50;;;;;;6069157;23;20223;-94
2022/09/08 03:42:05;;;;;;;10.37;3.40;;;21.00;76.30;;;;;;6069037;23;20179;-92
2022/09/08 03:44:33;;;;;;;10.17;4.10;;;21.00;76.10;;;;;;6011913;23;20176;-95
2022/09/08 03:47:00;;;;;;;8.53;3.50;;;21.00;75.80;;;;;;6067490;23;20176;-94
2022/09/08 03:49:28;;;;;;;9.47;3.43;;;20.90;76.00;;;;;;6075297;23;20200;-91
2022/09/08 03:51:58;;;;;;;9.30;3.53;;;20.90;76.50;;;;;;6081862;23;20267;-94
2022/09/08 03:54:50;;;;;;;6.40;3.10;;;20.90;77.20;;;;;;6064555;23;20207;-92
2022/09/08 03:57:24;;;;;;;7.20;2.87;;;20.90;77.90;;;;;;6069756;23;20263;-92
2022/09/08 03:59:56;;;;;;;5.80;3.23;;;20.90;77.30;;;;;;6068161;23;20282;-94
2022/09/08 04:02:38;;;;;;;5.97;2.60;;;20.80;77.90;;;;;;6068391;23;20168;-94
2022/09/08 04:05:23;;;;;;;8.30;2.80;;;20.80;78.90;;;;;;6068637;23;20207;-93
2022/09/08 04:07:51;;;;;;;7.60;3.40;;;20.80;78.40;;;;;;6068060;23;20178;-94
2022/09/08 04:10:23;;;;;;;9.80;3.77;;;20.80;77.50;;;;;;6068983;23;20175;-93
2022/09/08 04:12:51;;;;;;;5.53;2.73;;;20.80;78.80;;;;;;6069858;23;20174;-94
2022/09/08 04:15:21;;;;;;;8.73;3.43;;;20.80;77.90;;;;;;6066691;23;20176;-93
2022/09/08 04:17:49;;;;;;;5.57;2.57;;;20.80;78.60;;;;;;6067529;23;20258;-94
2022/09/08 04:20:17;;;;;;;15.10;5.57;;;20.80;78.30;;;;;;6066174;23;20763;-93
2022/09/08 04:22:46;;;;;;;4.93;2.70;;;20.80;78.10;;;;;;6094814;23;20558;-93
2022/09/08 04:25:15;;;;;;;6.73;3.20;;;20.80;78.70;;;;;;6096063;23;20178;-93
2022/09/08 04:27:50;;;;;;;10.03;4.03;;;20.80;78.80;;;;;;6095159;23;20221;-94
2022/09/08 04:30:23;;;;;;;9.70;3.27;;;20.80;79.00;;;;;;6094999;23;20173;-92
2022/09/08 04:32:50;;;;;;;7.93;3.20;;;20.80;79.00;;;;;;6096019;23;20171;-94
2022/09/08 04:35:19;;;;;;;9.67;3.53;;;20.80;77.90;;;;;;6095457;23;20238;-93
2022/09/08 04:37:53;;;;;;;8.13;3.17;;;20.80;78.50;;;;;;6094793;23;20202;-94
2022/09/08 04:40:21;;;;;;;11.83;4.10;;;20.80;78.80;;;;;;6094759;23;20265;-93
2022/09/08 04:42:50;;;;;;;15.43;4.73;;;20.80;79.50;;;;;;6097395;23;20206;-95
2022/09/08 04:45:22;;;;;;;11.80;4.03;;;20.70;78.90;;;;;;6076516;23;20197;-94
2022/09/08 04:47:52;;;;;;;10.43;4.07;;;20.70;79.20;;;;;;6099765;23;20175;-94
2022/09/08 04:50:19;;;;;;;11.43;3.67;;;20.70;79.60;;;;;;6097900;23;20182;-95
2022/09/08 04:52:49;;;;;;;9.73;3.83;;;20.70;78.50;;;;;;6099932;23;20688;-94
2022/09/08 04:55:36;;;;;;;8.70;3.40;;;20.70;78.80;;;;;;6095519;23;20174;-93
2022/09/08 04:58:29;;;;;;;6.77;2.60;;;20.70;78.50;;;;;;6096005;23;20176;-95
2022/09/08 05:01:06;;;;;;;12.87;4.47;;;20.70;79.50;;;;;;6094541;23;20202;-95
2022/09/08 05:03:41;;;;;;;8.40;2.87;;;20.60;78.20;;;;;;6113215;23;20248;-95
2022/09/08 05:06:11;;;;;;;6.43;2.00;;;20.70;79.00;;;;;;6101579;23;20175;-94
2022/09/08 05:08:39;;;;;;;8.90;3.33;;;20.70;78.20;;;;;;6099127;23;20256;-93
2022/09/08 05:11:09;;;;;;;6.60;2.50;;;20.70;77.80;;;;;;6098050;23;20171;-95
2022/09/08 05:13:38;;;;;;;4.93;2.43;;;20.70;78.50;;;;;;6096977;23;20183;-94
2022/09/08 05:16:07;;;;;;;8.30;3.20;;;20.60;78.30;;;;;;6094211;23;20617;-95
2022/09/08 05:18:39;;;;;;;7.47;2.70;;;20.60;78.80;;;;;;6095712;23;20171;-94
2022/09/08 05:21:07;;;;;;;15.03;4.63;;;20.60;78.50;;;;;;6093193;23;20263;-92
2022/09/08 05:23:38;;;;;;;5.87;2.63;;;20.50;78.40;;;;;;6094969;23;20182;-93
2022/09/08 05:26:09;;;;;;;7.63;3.30;;;20.50;78.40;;;;;;6096904;23;20230;-93
2022/09/08 05:28:40;;;;;;;6.57;2.53;;;20.50;78.40;;;;;;6097550;23;20182;-95
2022/09/08 05:31:11;;;;;;;9.33;3.10;;;20.50;78.60;;;;;;6096892;23;20171;-94
2022/09/08 05:33:42;;;;;;;5.83;2.37;;;20.50;78.60;;;;;;6096515;23;20178;-93
2022/09/08 05:36:11;;;;;;;8.43;2.77;;;20.50;78.60;;;;;;6097178;23;20171;-93
2022/09/08 05:38:38;;;;;;;6.07;2.43;;;20.40;78.20;;;;;;6094273;23;20247;-92
2022/09/08 05:41:06;;;;;;;10.00;3.73;;;20.40;77.80;;;;;;6093246;23;20284;-94
2022/09/08 05:43:40;;;;;;;8.57;3.43;;;20.40;78.20;;;;;;6116854;23;20170;-92
2022/09/08 05:46:09;;;;;;;12.27;3.87;;;20.40;78.90;;;;;;6118150;23;20199;-94
2022/09/08 05:48:36;;;;;;;6.87;2.90;;;20.40;78.60;;;;;;6111469;23;20222;-92
2022/09/08 05:51:17;;;;;;;5.20;1.90;;;20.30;78.30;;;;;;6107881;23;20175;-90
2022/09/08 05:53:44;;;;;;;9.67;3.47;;;20.30;79.40;;;;;;6101440;23;20189;-94
2022/09/08 05:56:18;;;;;;;8.53;3.03;;;20.30;78.50;;;;;;6097552;23;20490;-92
2022/09/08 05:58:51;;;;;;;5.93;2.80;;;20.20;79.10;;;;;;6094237;23;20205;-91
2022/09/08 06:01:24;;;;;;;11.13;3.00;;;20.20;79.40;;;;;;6096345;23;20191;-94
2022/09/08 06:03:52;;;;;;;5.93;2.40;;;20.20;79.40;;;;;;6097829;23;20219;-92
2022/09/08 06:06:20;;;;;;;12.13;4.30;;;20.10;78.70;;;;;;6096281;23;20175;-91
2022/09/08 06:08:48;;;;;;;7.57;2.97;;;20.20;79.20;;;;;;6095996;23;20238;-90
2022/09/08 06:11:15;;;;;;;6.13;2.67;;;20.10;79.40;;;;;;6095035;23;20253;-89
2022/09/08 06:13:42;;;;;;;10.77;3.90;;;20.10;79.50;;;;;;6098079;23;20187;-91
2022/09/08 06:16:13;;;;;;;11.33;3.73;;;20.10;79.50;;;;;;6107704;23;20178;-92
2022/09/08 06:18:42;;;;;;;9.00;3.17;;;20.00;80.10;;;;;;6097823;23;20226;-94
2022/09/08 06:21:13;;;;;;;9.57;2.83;;;20.10;80.00;;;;;;6096011;23;20199;-93
2022/09/08 06:23:41;;;;;;;9.93;3.13;;;20.00;80.30;;;;;;6094969;23;20231;-91
2022/09/08 06:26:58;;;;;;;11.53;3.93;;;20.00;80.20;;;;;;6095230;23;20250;-92
2022/09/08 06:29:58;;;;;;;8.23;3.20;;;20.00;80.80;;;;;;6096346;23;20177;-93
2022/09/08 06:32:31;;;;;;;13.33;3.63;;;20.10;80.80;;;;;;6097700;23;20179;-91
2022/09/08 06:35:04;;;;;;;12.47;4.20;;;20.00;80.70;;;;;;6113759;23;20178;-89
2022/09/08 06:37:39;;;;;;;8.30;2.83;;;20.00;80.70;;;;;;6103052;23;20176;-94
2022/09/08 06:42:40;;;;;;;7.07;2.83;;;20.00;80.70;;;;;;6095436;23;20210;-95
2022/09/08 06:45:29;;;;;;;7.97;3.20;;;20.00;81.60;;;;;;6096356;23;20647;-94
2022/09/08 06:48:21;;;;;;;5.33;2.60;;;20.00;81.60;;;;;;6094923;23;20182;-94
2022/09/08 06:51:09;;;;;;;5.43;2.27;;;20.00;82.20;;;;;;6097469;23;20186;-94
2022/09/08 06:53:45;;;;;;;10.50;3.60;;;20.00;81.90;;;;;;6098168;23;20209;-93
2022/09/08 06:56:31;;;;;;;6.27;2.77;;;20.00;81.70;;;;;;6097366;23;20619;-91
2022/09/08 06:59:02;;;;;;;9.00;3.10;;;20.00;81.70;;;;;;6097159;23;20498;-92
2022/09/08 07:01:36;;;;;;;17.27;3.43;;;20.10;81.40;;;;;;6072078;23;20210;-93
2022/09/08 07:04:20;;;;;;;9.87;2.80;;;20.10;81.50;;;;;;6096776;23;20195;-91
2022/09/08 07:06:54;;;;;;;8.43;2.73;;;20.10;82.00;;;;;;6095793;23;20225;-94
2022/09/08 07:09:30;;;;;;;21.13;5.60;;;20.10;81.70;;;;;;6097069;23;20242;-92
2022/09/08 07:12:19;;;;;;;7.03;2.47;;;20.10;81.80;;;;;;6096281;23;20189;-93
2022/09/08 07:15:22;;;;;;;8.33;2.90;;;20.10;81.60;;;;;;6095897;23;20585;-93
2022/09/08 07:17:54;;;;;;;6.63;2.97;;;20.10;82.80;;;;;;6096401;23;20273;-91
2022/09/08 07:20:30;;;;;;;9.63;2.83;;;20.20;82.20;;;;;;6098743;23;20203;-94
2022/09/08 07:23:01;;;;;;;12.50;3.67;;;20.20;82.10;;;;;;6119091;23;20183;-94
2022/09/08 07:25:38;;;;;;;9.80;2.80;;;20.30;82.10;;;;;;6110776;23;20189;-91
2022/09/08 07:28:14;;;;;;;10.80;3.63;;;20.20;82.60;;;;;;6097012;23;20167;-94
2022/09/08 07:30:42;;;;;;;10.60;2.80;;;20.20;82.00;;;;;;6094063;23;20208;-93
2022/09/08 07:33:31;;;;;;;12.83;2.50;;;20.30;81.60;;;;;;6096582;23;20616;-94
2022/09/08 07:36:11;;;;;;;8.40;3.13;;;20.30;82.10;;;;;;6097814;23;20182;-93
2022/09/08 07:38:48;;;;;;;9.00;3.37;;;20.30;82.40;;;;;;6096036;23;20163;-92
2022/09/08 07:41:20;;;;;;;8.83;2.83;;;20.40;81.90;;;;;;6096678;23;20204;-92
2022/09/08 07:43:49;;;;;;;7.83;3.00;;;20.40;81.30;;;;;;6096414;23;20712;-91
2022/09/08 07:46:42;;;;;;;11.57;3.60;;;20.50;80.80;;;;;;6096430;23;20590;-93
2022/09/08 07:49:23;;;;;;;10.83;3.37;;;20.50;80.70;;;;;;6084495;23;20234;-94
2022/09/08 07:52:16;;;;;;;11.87;3.80;;;20.60;80.40;;;;;;6097407;23;20237;-93
2022/09/08 07:54:52;;;;;;;13.23;3.00;;;20.60;80.40;;;;;;6095355;23;20198;-91
2022/09/08 07:57:29;;;;;;;10.73;3.97;;;20.60;80.40;;;;;;6093457;23;20189;-93
2022/09/08 08:00:04;;;;;;;8.93;3.37;;;20.70;80.50;;;;;;6093342;23;20174;-94
2022/09/08 08:03:08;;;;;;;14.00;4.77;;;20.70;80.10;;;;;;6092773;23;20172;-93
2022/09/08 08:05:41;;;;;;;10.90;3.83;;;20.70;80.40;;;;;;6093203;23;20209;-93
2022/09/08 08:08:17;;;;;;;13.63;3.57;;;20.70;79.50;;;;;;6094380;23;20179;-94
2022/09/08 08:10:55;;;;;;;15.10;4.17;;;20.90;79.20;;;;;;6095955;23;20559;-92
2022/09/08 08:13:31;;;;;;;11.87;3.37;;;20.90;79.10;;;;;;6097697;23;20179;-94
2022/09/08 08:16:08;;;;;;;8.23;3.10;;;21.00;78.80;;;;;;6095828;23;20178;-93
2022/09/08 08:18:45;;;;;;;10.17;4.03;;;21.00;78.10;;;;;;6095323;23;20168;-94
2022/09/08 08:21:17;;;;;;;19.73;6.00;;;21.00;78.40;;;;;;6094471;23;20259;-90
2022/09/08 08:24:02;;;;;;;16.83;5.30;;;21.10;77.50;;;;;;6093903;23;20194;-93
2022/09/08 08:26:43;;;;;;;12.33;4.73;;;21.10;76.80;;;;;;6093967;23;20245;-94
2022/09/08 08:29:51;;;;;;;13.67;3.53;;;21.10;76.20;;;;;;6094247;23;20585;-95
2022/09/08 08:32:40;;;;;;;23.13;6.47;;;21.20;76.10;;;;;;6006850;23;20820;-93
2022/09/08 08:44:25;;;;;;;10.83;3.80;;;21.30;74.70;;;;;;6091201;23;20195;-94
2022/09/08 08:47:53;;;;;;;17.80;4.87;;;21.40;74.40;;;;;;6094073;23;20234;-94
2022/09/08 08:51:11;;;;;;;16.97;4.40;;;21.40;74.80;;;;;;6092444;23;20171;-93
2022/09/08 08:54:20;;;;;;;8.03;2.40;;;21.50;76.00;;;;;;5949002;24;20203;-94
2022/09/08 08:56:52;;;;;;;13.20;3.83;;;21.60;75.80;;;;;;5945241;24;20197;-91
2022/09/08 09:00:01;;;;;;;9.83;3.73;;;21.70;75.40;;;;;;6070800;23;20245;-93
2022/09/08 09:02:55;;;;;;;3.93;1.90;;;21.90;74.60;;;;;;6096971;23;20205;-89
2022/09/08 09:05:34;;;;;;;10.73;2.83;;;22.10;74.00;;;;;;6097620;23;20184;-92
2022/09/08 09:08:43;;;;;;;8.73;2.80;;;22.30;73.50;;;;;;6097468;23;20175;-89
2022/09/08 09:11:34;;;;;;;9.90;3.10;;;22.50;73.20;;;;;;6097160;23;20190;-92
2022/09/08 09:14:24;;;;;;;9.07;2.60;;;22.70;71.90;;;;;;6097091;23;20559;-91
2022/09/08 09:17:11;;;;;;;9.97;3.33;;;22.90;71.10;;;;;;6112334;23;20175;-94
2022/09/08 09:20:02;;;;;;;9.03;2.93;;;23.00;70.50;;;;;;6103949;23;20175;-92
2022/09/08 09:22:42;;;;;;;7.47;2.67;;;23.20;69.60;;;;;;6098728;23;20204;-96
2022/09/08 09:25:19;;;;;;;5.97;2.10;;;23.30;69.30;;;;;;6097811;23;20175;-93
2022/09/08 09:27:51;;;;;;;6.60;2.50;;;23.40;68.90;;;;;;6097828;23;20175;-90
2022/09/08 09:30:24;;;;;;;15.03;4.83;;;23.50;68.80;;;;;;6096003;23;20565;-93
2022/09/08 09:33:26;;;;;;;10.63;3.53;;;23.70;67.80;;;;;;6095346;23;20233;-94
2022/09/08 09:36:19;;;;;;;8.07;2.33;;;23.70;67.70;;;;;;6097727;23;20208;-93
2022/09/08 09:39:24;;;;;;;8.57;2.50;;;23.80;67.00;;;;;;6118945;23;20175;-94
2022/09/08 09:42:12;;;;;;;11.70;3.27;;;23.90;66.90;;;;;;5988795;24;20213;-95
2022/09/08 09:45:17;;;;;;;5.33;2.00;;;23.90;65.90;;;;;;5964157;24;20252;-94
2022/09/08 09:48:19;;;;;;;7.67;2.73;;;23.90;65.70;;;;;;6077363;23;20626;-94
2022/09/08 09:51:04;;;;;;;9.97;2.93;;;23.90;65.00;;;;;;6095367;23;20178;-92
2022/09/08 09:54:20;;;;;;;6.50;2.33;;;23.90;64.80;;;;;;6098421;23;20179;-91
2022/09/08 09:57:11;;;;;;;7.13;2.07;;;23.90;64.20;;;;;;6098142;23;20171;-93
2022/09/08 10:00:04;;;;;;;9.67;2.27;;;23.90;64.80;;;;;;6099065;23;20179;-93
2022/09/08 10:03:39;;;;;;;11.43;3.07;;;23.80;64.90;;;;;;6100036;23;20218;-91
2022/09/08 10:06:50;;;;;;;9.53;2.50;;;23.80;64.70;;;;;;5970624;23;20244;-92
2022/09/08 10:10:01;;;;;;;9.67;2.50;;;23.90;64.20;;;;;;5989008;23;20284;-94
2022/09/08 10:13:24;;;;;;;11.57;2.67;;;24.00;63.90;;;;;;6096647;23;20212;-95
2022/09/08 10:16:32;;;;;;;6.40;2.27;;;24.10;63.40;;;;;;6105592;23;20184;-95
2022/09/08 10:20:05;;;;;;;7.53;2.73;;;24.10;62.90;;;;;;6106555;23;20602;-96
2022/09/08 10:29:44;;;;;;;14.17;2.97;;;24.30;62.70;;;;;;6092806;23;20177;-95
2022/09/08 10:32:35;;;;;;;5.43;1.87;;;24.40;63.50;;;;;;6099715;23;20208;-95
2022/09/08 10:35:39;;;;;;;7.50;2.77;;;24.40;62.90;;;;;;6098228;23;20240;-95
2022/09/08 10:38:52;;;;;;;13.10;3.53;;;24.50;62.90;;;;;;6097651;23;20192;-95
2022/09/08 10:42:14;;;;;;;9.00;3.17;;;24.60;62.90;;;;;;6089103;23;20592;-93
2022/09/08 10:44:56;;;;;;;7.47;2.13;;;24.70;62.60;;;;;;6098217;23;20213;-95
2022/09/08 10:48:05;;;;;;;5.30;1.53;;;24.90;62.10;;;;;;6096963;23;20238;-94
2022/09/08 10:50:36;;;;;;;9.30;2.73;;;25.00;62.00;;;;;;6097000;23;20454;-94
2022/09/08 10:53:33;;;;;;;8.17;2.43;;;25.10;61.50;;;;;;6097199;23;20175;-94
2022/09/08 10:56:13;;;;;;;8.30;2.63;;;25.20;60.40;;;;;;6087999;23;20230;-94
2022/09/08 10:59:11;;;;;;;6.53;2.50;;;25.30;60.50;;;;;;6097503;23;20198;-94
2022/09/08 11:02:12;;;;;;;10.87;3.87;;;25.40;60.10;;;;;;6095821;23;20203;-94
2022/09/08 11:05:19;;;;;;;5.00;2.07;;;25.60;60.00;;;;;;6095700;23;20197;-92
2022/09/08 11:08:38;;;;;;;7.43;1.80;;;25.70;60.50;;;;;;6098792;23;20174;-93
2022/09/08 11:11:42;;;;;;;8.87;2.87;;;25.90;60.10;;;;;;6098629;23;20179;-92
2022/09/08 11:14:36;;;;;;;6.03;2.17;;;26.00;59.10;;;;;;6097266;23;20249;-92
2022/09/08 11:17:29;;;;;;;7.43;2.33;;;26.10;58.50;;;;;;6099302;23;20187;-96
2022/09/08 11:20:07;;;;;;;6.50;2.33;;;26.20;58.50;;;;;;6093637;23;20544;-92
2022/09/08 11:22:50;;;;;;;5.53;1.93;;;26.30;58.30;;;;;;6095274;23;20237;-92
2022/09/08 11:25:28;;;;;;;7.03;1.97;;;26.30;57.90;;;;;;6098194;23;20175;-95
2022/09/08 11:28:07;;;;;;;7.67;2.53;;;26.40;57.80;;;;;;6096612;23;20234;-91
2022/09/08 11:30:46;;;;;;;6.60;2.37;;;26.50;57.60;;;;;;6096403;23;20175;-96
2022/09/08 11:33:28;;;;;;;7.27;2.20;;;26.50;57.60;;;;;;6096595;23;20178;-95
2022/09/08 11:36:14;;;;;;;7.27;1.90;;;26.50;57.30;;;;;;6097235;23;20179;-95
2022/09/08 11:38:58;;;;;;;4.27;1.73;;;26.50;57.50;;;;;;6097772;23;20513;-95
2022/09/08 11:41:48;;;;;;;8.50;2.90;;;26.50;57.50;;;;;;6098664;23;20198;-92
2022/09/08 11:44:46;;;;;;;5.70;2.33;;;26.40;57.60;;;;;;6103958;23;20483;-93
2022/09/08 11:47:56;;;;;;;3.43;1.30;;;26.20;58.10;;;;;;6099583;23;20499;-95
2022/09/08 11:50:38;;;;;;;4.27;1.50;;;26.00;57.80;;;;;;6098575;23;20175;-94
2022/09/08 11:53:34;;;;;;;6.17;2.13;;;25.70;57.70;;;;;;6097031;23;20226;-94
2022/09/08 11:56:29;;;;;;;8.63;2.70;;;25.50;58.00;;;;;;6097802;23;20182;-93
2022/09/08 11:59:21;;;;;;;7.50;2.67;;;25.20;58.30;;;;;;6116462;23;20156;-94
2022/09/08 12:02:09;;;;;;;4.30;1.63;;;25.00;58.60;;;;;;6096379;23;20650;-90
2022/09/08 12:05:01;;;;;;;3.93;1.17;;;24.80;59.10;;;;;;6123440;23;20164;-96
2022/09/08 12:07:56;;;;;;;4.57;1.60;;;24.50;59.40;;;;;;6101126;23;20178;-95
2022/09/08 12:10:35;;;;;;;4.03;1.60;;;24.40;60.50;;;;;;6095367;23;20289;-95
2022/09/08 12:13:16;;;;;;;6.13;1.67;;;24.20;61.60;;;;;;6098360;23;20176;-96
2022/09/08 12:16:22;;;;;;;10.13;2.90;;;24.30;62.20;;;;;;6098556;23;20605;-92
2022/09/08 12:19:11;;;;;;;7.50;2.47;;;24.30;62.40;;;;;;6072725;23;20182;-96
2022/09/08 12:22:07;;;;;;;8.40;2.33;;;24.40;62.90;;;;;;6097879;23;20202;-93
2022/09/08 12:24:56;;;;;;;11.90;3.23;;;24.40;62.80;;;;;;6097571;23;20477;-95
2022/09/08 12:27:47;;;;;;;6.93;2.30;;;24.50;62.90;;;;;;6099117;23;20215;-94
2022/09/08 12:30:18;;;;;;;8.00;2.50;;;24.60;63.00;;;;;;6093732;23;20201;-95
2022/09/08 12:33:04;;;;;;;8.50;3.53;;;24.70;63.30;;;;;;6095095;23;20675;-95
2022/09/08 12:35:33;;;;;;;12.87;4.13;;;24.70;64.00;;;;;;6094341;23;20181;-95
2022/09/08 12:38:16;;;;;;;8.97;2.97;;;24.80;64.00;;;;;;6093657;23;20182;-91
2022/09/08 12:41:19;;;;;;;10.57;3.40;;;24.90;64.00;;;;;;6095111;23;20186;-93
2022/09/08 12:43:48;;;;;;;6.33;2.57;;;25.10;64.00;;;;;;6095062;23;20617;-95
2022/09/08 12:46:50;;;;;;;7.97;2.43;;;25.30;64.00;;;;;;6096400;23;20194;-95
2022/09/08 12:49:51;;;;;;;9.83;2.67;;;25.40;63.20;;;;;;6089280;23;20205;-94
2022/09/08 12:52:38;;;;;;;10.93;3.60;;;25.50;62.40;;;;;;6068913;23;20183;-96
2022/09/08 12:55:16;;;;;;;13.10;4.27;;;25.60;61.00;;;;;;6096083;23;20274;-96
2022/09/08 12:58:01;;;;;;;6.17;1.77;;;25.60;60.30;;;;;;6094866;23;20225;-95
2022/09/08 13:00:34;;;;;;;7.07;2.53;;;25.60;60.00;;;;;;6095329;23;20283;-93
2022/09/08 13:03:28;;;;;;;7.97;2.53;;;25.60;60.00;;;;;;6096243;23;20695;-91
2022/09/08 13:06:25;;;;;;;7.43;2.37;;;25.60;60.00;;;;;;6096065;23;20182;-94
2022/09/08 13:08:59;;;;;;;9.30;3.23;;;25.50;59.50;;;;;;6097269;23;20206;-93
2022/09/08 13:12:02;;;;;;;10.13;3.10;;;25.50;59.90;;;;;;6093565;23;20171;-93
2022/09/08 13:14:47;;;;;;;8.17;3.20;;;25.40;60.20;;;;;;6091596;23;20258;-95
2022/09/08 13:17:23;;;;;;;8.63;2.53;;;25.40;60.90;;;;;;6097444;23;20171;-94
2022/09/08 13:20:08;;;;;;;7.77;2.27;;;25.30;61.70;;;;;;6098732;23;20177;-94
2022/09/08 13:22:45;;;;;;;4.20;1.47;;;25.20;62.20;;;;;;6097404;23;21007;-93
2022/09/08 13:25:21;;;;;;;6.00;2.43;;;25.00;60.00;;;;;;6099730;23;20178;-92
2022/09/08 13:28:26;;;;;;;4.40;1.57;;;24.80;59.30;;;;;;6103248;23;20175;-91
2022/09/08 13:31:05;;;;;;;5.77;1.97;;;24.50;60.00;;;;;;6100646;23;20184;-93
2022/09/08 13:33:54;;;;;;;3.80;1.63;;;24.10;60.50;;;;;;6102322;23;20571;-94
2022/09/08 13:36:38;;;;;;;3.83;1.63;;;23.80;61.40;;;;;;6106825;23;20203;-93
2022/09/08 13:39:40;;;;;;;10.50;3.30;;;23.60;63.60;;;;;;6104016;23;20174;-93
2022/09/08 13:42:38;;;;;;;7.23;2.13;;;23.40;64.90;;;;;;6101797;23;20204;-93
2022/09/08 13:45:35;;;;;;;6.97;2.20;;;23.10;65.20;;;;;;6104099;23;20179;-92
2022/09/08 13:48:32;;;;;;;8.70;2.70;;;23.00;65.40;;;;;;6102913;23;20238;-92
2022/09/08 13:51:37;;;;;;;7.27;2.27;;;22.90;65.60;;;;;;6102243;23;20170;-92
2022/09/08 13:54:28;;;;;;;6.17;2.37;;;22.70;66.20;;;;;;6100673;23;20178;-92
2022/09/08 13:57:28;;;;;;;10.13;2.93;;;22.60;68.50;;;;;;6101293;23;20246;-92
2022/09/08 14:00:06;;;;;;;11.70;2.77;;;22.60;69.20;;;;;;6082557;23;20171;-91
2022/09/08 14:02:42;;;;;;;6.40;2.53;;;22.50;69.80;;;;;;6100952;23;20625;-92
2022/09/08 14:05:20;;;;;;;9.77;3.30;;;22.50;70.20;;;;;;6096863;23;20195;-91
2022/09/08 14:07:55;;;;;;;5.33;2.13;;;22.40;71.10;;;;;;6076967;23;20189;-93
2022/09/08 14:10:43;;;;;;;8.57;2.67;;;22.40;70.40;;;;;;6104291;23;20178;-93
2022/09/08 14:13:28;;;;;;;14.63;5.07;;;22.50;70.60;;;;;;6104063;23;20186;-92
2022/09/08 14:16:12;;;;;;;9.43;2.50;;;22.50;71.10;;;;;;6123465;23;20155;-92
2022/09/08 14:19:09;;;;;;;8.20;2.67;;;22.50;71.70;;;;;;6123781;23;20178;-91
2022/09/08 14:21:46;;;;;;;9.97;2.80;;;22.60;73.60;;;;;;6119513;23;20175;-92
2022/09/08 14:24:49;;;;;;;7.10;2.33;;;22.60;72.30;;;;;;6119991;23;20158;-92
2022/09/08 14:27:29;;;;;;;6.43;2.23;;;22.70;75.50;;;;;;6026023;23;20177;-92
2022/09/08 14:30:05;;;;;;;3.13;1.57;;;22.70;73.00;;;;;;6019507;23;20177;-91
2022/09/08 14:32:50;;;;;;;9.37;3.67;;;22.80;73.90;;;;;;6068775;23;20570;-93
2022/09/08 14:35:35;;;;;;;6.17;1.90;;;22.90;73.10;;;;;;6099244;23;20285;-91
2022/09/08 14:38:31;;;;;;;8.97;2.73;;;23.00;72.70;;;;;;6097406;23;20183;-93